sensor_id;sensor_type;location;lat;lon;timestamp;P1;durP1;ratioP1;P2;durP2;ratioP2
18818;SDS011;9537;45.594;9.294;2023-07-29T00:00:28;4.05;;;3.30;;
18818;SDS011;9537;45.594;9.294;2023-07-29T00:01:30;5.45;;;3.20;;
18818;SDS011;9537;45.594;9.294;2023-07-29T00:02:30;5.43;;;3.53;;
18818;SDS011;9537;45.594;9.294;2023-07-29T00:03:32;8.60;;;3.42;;
18818;SDS011;9537;45.594;9.294;2023-07-29T00:04:34;4.60;;;3.50;;
18818;SDS011;9537;45.594;9.294;2023-07-29T00:05:36;5.53;;;3.47;;
18818;SDS011;9537;45.594;9.294;2023-07-29T00:06:37;3.95;;;3.20;;
18818;SDS011;9537;45.594;9.294;2023-07-29T00:07:39;8.68;;;3.53;;
18818;SDS011;9537;45.594;9.294;2023-07-29T00:08:39;7.63;;;3.97;;
18818;SDS011;9537;45.594;9.294;2023-07-29T00:09:41;6.07;;;3.60;;
18818;SDS011;9537;45.594;9.294;2023-07-29T00:10:42;5.05;;;3.55;;
18818;SDS011;9537;45.594;9.294;2023-07-29T00:11:44;6.28;;;3.53;;
18818;SDS011;9537;45.594;9.294;2023-07-29T00:12:44;3.72;;;3.15;;
18818;SDS011;9537;45.594;9.294;2023-07-29T00:13:45;4.60;;;3.05;;
18818;SDS011;9537;45.594;9.294;2023-07-29T00:14:50;4.60;;;3.47;;
18818;SDS011;9537;45.594;9.294;2023-07-29T00:15:52;5.03;;;3.33;;
18818;SDS011;9537;45.594;9.294;2023-07-29T00:16:54;6.00;;;3.50;;
18818;SDS011;9537;45.594;9.294;2023-07-29T00:17:55;4.45;;;3.42;;
18818;SDS011;9537;45.594;9.294;2023-07-29T00:18:56;4.28;;;3.40;;
18818;SDS011;9537;45.594;9.294;2023-07-29T00:19:59;4.78;;;3.55;;
18818;SDS011;9537;45.594;9.294;2023-07-29T00:20:59;5.05;;;3.88;;
18818;SDS011;9537;45.594;9.294;2023-07-29T00:22:01;6.63;;;3.70;;
18818;SDS011;9537;45.594;9.294;2023-07-29T00:23:02;7.55;;;3.72;;
18818;SDS011;9537;45.594;9.294;2023-07-29T00:24:04;4.63;;;3.35;;
18818;SDS011;9537;45.594;9.294;2023-07-29T00:25:05;5.13;;;3.20;;
18818;SDS011;9537;45.594;9.294;2023-07-29T00:26:07;3.88;;;3.13;;
18818;SDS011;9537;45.594;9.294;2023-07-29T00:27:08;5.13;;;3.30;;
18818;SDS011;9537;45.594;9.294;2023-07-29T00:28:10;4.65;;;3.53;;
18818;SDS011;9537;45.594;9.294;2023-07-29T00:29:11;4.47;;;3.60;;
18818;SDS011;9537;45.594;9.294;2023-07-29T00:30:13;3.65;;;3.35;;
18818;SDS011;9537;45.594;9.294;2023-07-29T00:31:14;4.38;;;3.83;;
18818;SDS011;9537;45.594;9.294;2023-07-29T00:32:16;6.00;;;3.90;;
18818;SDS011;9537;45.594;9.294;2023-07-29T00:33:17;5.90;;;3.50;;
18818;SDS011;9537;45.594;9.294;2023-07-29T00:34:19;5.10;;;3.88;;
18818;SDS011;9537;45.594;9.294;2023-07-29T00:35:22;5.32;;;3.58;;
18818;SDS011;9537;45.594;9.294;2023-07-29T00:36:23;6.82;;;3.70;;
18818;SDS011;9537;45.594;9.294;2023-07-29T00:37:24;5.57;;;3.35;;
18818;SDS011;9537;45.594;9.294;2023-07-29T00:38:26;5.63;;;3.60;;
18818;SDS011;9537;45.594;9.294;2023-07-29T00:39:26;5.28;;;3.65;;
18818;SDS011;9537;45.594;9.294;2023-07-29T00:40:28;4.57;;;3.65;;
18818;SDS011;9537;45.594;9.294;2023-07-29T00:41:30;3.60;;;3.28;;
18818;SDS011;9537;45.594;9.294;2023-07-29T00:42:31;5.60;;;3.60;;
18818;SDS011;9537;45.594;9.294;2023-07-29T00:43:32;5.63;;;3.40;;
18818;SDS011;9537;45.594;9.294;2023-07-29T00:44:34;5.75;;;3.70;;
18818;SDS011;9537;45.594;9.294;2023-07-29T00:45:35;4.60;;;3.47;;
18818;SDS011;9537;45.594;9.294;2023-07-29T00:46:37;5.10;;;3.50;;
18818;SDS011;9537;45.594;9.294;2023-07-29T00:47:40;5.13;;;3.72;;
18818;SDS011;9537;45.594;9.294;2023-07-29T00:48:43;4.38;;;3.10;;
18818;SDS011;9537;45.594;9.294;2023-07-29T00:49:44;5.63;;;3.45;;
18818;SDS011;9537;45.594;9.294;2023-07-29T00:50:47;4.10;;;3.70;;
18818;SDS011;9537;45.594;9.294;2023-07-29T00:51:48;6.07;;;3.85;;
18818;SDS011;9537;45.594;9.294;2023-07-29T00:52:50;4.25;;;3.30;;
18818;SDS011;9537;45.594;9.294;2023-07-29T00:53:51;5.43;;;3.50;;
18818;SDS011;9537;45.594;9.294;2023-07-29T00:54:53;4.05;;;3.40;;
18818;SDS011;9537;45.594;9.294;2023-07-29T00:55:53;4.32;;;3.70;;
18818;SDS011;9537;45.594;9.294;2023-07-29T00:56:55;4.63;;;3.40;;
18818;SDS011;9537;45.594;9.294;2023-07-29T00:57:56;4.20;;;3.70;;
18818;SDS011;9537;45.594;9.294;2023-07-29T00:58:58;4.30;;;3.90;;
18818;SDS011;9537;45.594;9.294;2023-07-29T01:00:02;4.25;;;3.50;;
18818;SDS011;9537;45.594;9.294;2023-07-29T01:01:04;5.40;;;3.60;;
18818;SDS011;9537;45.594;9.294;2023-07-29T01:02:05;5.53;;;3.67;;
18818;SDS011;9537;45.594;9.294;2023-07-29T01:03:07;8.23;;;3.97;;
18818;SDS011;9537;45.594;9.294;2023-07-29T01:04:08;4.45;;;3.63;;
18818;SDS011;9537;45.594;9.294;2023-07-29T01:05:10;5.13;;;3.70;;
18818;SDS011;9537;45.594;9.294;2023-07-29T01:06:15;3.50;;;3.20;;
18818;SDS011;9537;45.594;9.294;2023-07-29T01:07:26;6.05;;;3.75;;
18818;SDS011;9537;45.594;9.294;2023-07-29T01:08:36;4.60;;;3.75;;
18818;SDS011;9537;45.594;9.294;2023-07-29T01:09:46;5.63;;;3.55;;
18818;SDS011;9537;45.594;9.294;2023-07-29T01:10:54;7.78;;;3.80;;
18818;SDS011;9537;45.594;9.294;2023-07-29T01:12:06;5.65;;;4.07;;
18818;SDS011;9537;45.594;9.294;2023-07-29T01:13:13;4.43;;;3.53;;
18818;SDS011;9537;45.594;9.294;2023-07-29T01:14:21;6.20;;;3.70;;
18818;SDS011;9537;45.594;9.294;2023-07-29T01:15:41;4.30;;;3.35;;
18818;SDS011;9537;45.594;9.294;2023-07-29T01:16:50;5.60;;;3.42;;
18818;SDS011;9537;45.594;9.294;2023-07-29T01:17:56;5.90;;;3.92;;
18818;SDS011;9537;45.594;9.294;2023-07-29T01:19:05;5.15;;;3.60;;
18818;SDS011;9537;45.594;9.294;2023-07-29T01:20:07;3.95;;;3.47;;
18818;SDS011;9537;45.594;9.294;2023-07-29T01:21:10;5.18;;;3.70;;
18818;SDS011;9537;45.594;9.294;2023-07-29T01:22:13;5.97;;;3.80;;
18818;SDS011;9537;45.594;9.294;2023-07-29T01:23:23;4.60;;;3.63;;
18818;SDS011;9537;45.594;9.294;2023-07-29T01:24:24;4.18;;;3.60;;
18818;SDS011;9537;45.594;9.294;2023-07-29T01:25:26;5.93;;;4.10;;
18818;SDS011;9537;45.594;9.294;2023-07-29T01:26:26;5.72;;;3.75;;
18818;SDS011;9537;45.594;9.294;2023-07-29T01:27:29;5.07;;;3.70;;
18818;SDS011;9537;45.594;9.294;2023-07-29T01:28:30;5.38;;;3.88;;
18818;SDS011;9537;45.594;9.294;2023-07-29T01:29:33;4.72;;;3.35;;
18818;SDS011;9537;45.594;9.294;2023-07-29T01:30:37;8.55;;;4.20;;
18818;SDS011;9537;45.594;9.294;2023-07-29T01:31:42;6.38;;;3.63;;
18818;SDS011;9537;45.594;9.294;2023-07-29T01:32:46;6.95;;;3.95;;
18818;SDS011;9537;45.594;9.294;2023-07-29T01:33:56;4.45;;;3.70;;
18818;SDS011;9537;45.594;9.294;2023-07-29T01:35:00;4.97;;;3.72;;
18818;SDS011;9537;45.594;9.294;2023-07-29T01:36:10;5.57;;;3.80;;
18818;SDS011;9537;45.594;9.294;2023-07-29T01:37:19;4.07;;;3.47;;
18818;SDS011;9537;45.594;9.294;2023-07-29T01:38:24;7.10;;;4.05;;
18818;SDS011;9537;45.594;9.294;2023-07-29T01:39:32;5.22;;;3.60;;
18818;SDS011;9537;45.594;9.294;2023-07-29T01:40:37;7.07;;;3.90;;
18818;SDS011;9537;45.594;9.294;2023-07-29T01:41:38;6.63;;;3.92;;
18818;SDS011;9537;45.594;9.294;2023-07-29T01:42:41;5.03;;;3.70;;
18818;SDS011;9537;45.594;9.294;2023-07-29T01:43:43;4.60;;;3.45;;
18818;SDS011;9537;45.594;9.294;2023-07-29T01:44:44;4.32;;;3.92;;
18818;SDS011;9537;45.594;9.294;2023-07-29T01:45:45;6.28;;;3.90;;
18818;SDS011;9537;45.594;9.294;2023-07-29T01:46:47;4.65;;;3.50;;
18818;SDS011;9537;45.594;9.294;2023-07-29T01:47:50;5.38;;;3.58;;
18818;SDS011;9537;45.594;9.294;2023-07-29T01:48:51;5.50;;;3.55;;
18818;SDS011;9537;45.594;9.294;2023-07-29T01:49:52;7.03;;;4.32;;
18818;SDS011;9537;45.594;9.294;2023-07-29T01:50:54;7.80;;;3.90;;
18818;SDS011;9537;45.594;9.294;2023-07-29T01:51:54;6.70;;;4.20;;
18818;SDS011;9537;45.594;9.294;2023-07-29T01:52:56;6.57;;;3.88;;
18818;SDS011;9537;45.594;9.294;2023-07-29T01:53:58;5.50;;;3.85;;
18818;SDS011;9537;45.594;9.294;2023-07-29T01:55:00;3.88;;;3.47;;
18818;SDS011;9537;45.594;9.294;2023-07-29T01:56:01;5.10;;;3.92;;
18818;SDS011;9537;45.594;9.294;2023-07-29T01:57:03;5.63;;;3.78;;
18818;SDS011;9537;45.594;9.294;2023-07-29T01:58:05;7.28;;;3.90;;
18818;SDS011;9537;45.594;9.294;2023-07-29T01:59:06;5.20;;;4.10;;
18818;SDS011;9537;45.594;9.294;2023-07-29T02:00:07;6.72;;;4.15;;
18818;SDS011;9537;45.594;9.294;2023-07-29T02:01:10;6.80;;;5.07;;
18818;SDS011;9537;45.594;9.294;2023-07-29T02:02:10;7.03;;;4.15;;
18818;SDS011;9537;45.594;9.294;2023-07-29T02:03:11;7.60;;;4.30;;
18818;SDS011;9537;45.594;9.294;2023-07-29T02:04:13;7.60;;;4.05;;
18818;SDS011;9537;45.594;9.294;2023-07-29T02:05:13;5.75;;;4.30;;
18818;SDS011;9537;45.594;9.294;2023-07-29T02:06:15;7.78;;;4.20;;
18818;SDS011;9537;45.594;9.294;2023-07-29T02:07:16;6.53;;;4.10;;
18818;SDS011;9537;45.594;9.294;2023-07-29T02:08:18;6.45;;;4.22;;
18818;SDS011;9537;45.594;9.294;2023-07-29T02:09:20;7.45;;;4.85;;
18818;SDS011;9537;45.594;9.294;2023-07-29T02:10:22;7.40;;;4.82;;
18818;SDS011;9537;45.594;9.294;2023-07-29T02:11:22;6.38;;;4.50;;
18818;SDS011;9537;45.594;9.294;2023-07-29T02:12:27;7.40;;;4.35;;
18818;SDS011;9537;45.594;9.294;2023-07-29T02:13:28;8.45;;;4.40;;
18818;SDS011;9537;45.594;9.294;2023-07-29T02:14:30;6.20;;;4.30;;
18818;SDS011;9537;45.594;9.294;2023-07-29T02:15:30;7.50;;;4.65;;
18818;SDS011;9537;45.594;9.294;2023-07-29T02:16:32;7.45;;;4.30;;
18818;SDS011;9537;45.594;9.294;2023-07-29T02:17:34;5.03;;;4.32;;
18818;SDS011;9537;45.594;9.294;2023-07-29T02:18:37;7.07;;;4.55;;
18818;SDS011;9537;45.594;9.294;2023-07-29T02:19:37;5.72;;;4.50;;
18818;SDS011;9537;45.594;9.294;2023-07-29T02:20:39;7.43;;;4.45;;
18818;SDS011;9537;45.594;9.294;2023-07-29T02:21:40;6.05;;;4.45;;
18818;SDS011;9537;45.594;9.294;2023-07-29T02:22:42;8.25;;;3.97;;
18818;SDS011;9537;45.594;9.294;2023-07-29T02:23:43;5.13;;;4.18;;
18818;SDS011;9537;45.594;9.294;2023-07-29T02:24:45;4.57;;;3.78;;
18818;SDS011;9537;45.594;9.294;2023-07-29T02:25:47;4.95;;;4.00;;
18818;SDS011;9537;45.594;9.294;2023-07-29T02:26:47;8.68;;;4.60;;
18818;SDS011;9537;45.594;9.294;2023-07-29T02:27:49;4.93;;;4.22;;
18818;SDS011;9537;45.594;9.294;2023-07-29T02:28:50;4.00;;;3.60;;
18818;SDS011;9537;45.594;9.294;2023-07-29T02:29:51;5.28;;;4.15;;
18818;SDS011;9537;45.594;9.294;2023-07-29T02:32:13;7.60;;;4.40;;
18818;SDS011;9537;45.594;9.294;2023-07-29T02:33:14;6.63;;;4.47;;
18818;SDS011;9537;45.594;9.294;2023-07-29T02:34:16;5.43;;;4.13;;
18818;SDS011;9537;45.594;9.294;2023-07-29T02:35:16;6.38;;;3.90;;
18818;SDS011;9537;45.594;9.294;2023-07-29T02:36:18;5.82;;;4.10;;
18818;SDS011;9537;45.594;9.294;2023-07-29T02:37:19;4.78;;;4.25;;
18818;SDS011;9537;45.594;9.294;2023-07-29T02:38:21;7.63;;;4.28;;
18818;SDS011;9537;45.594;9.294;2023-07-29T02:39:21;5.85;;;4.18;;
18818;SDS011;9537;45.594;9.294;2023-07-29T02:40:25;6.88;;;4.05;;
18818;SDS011;9537;45.594;9.294;2023-07-29T02:41:27;5.25;;;3.95;;
18818;SDS011;9537;45.594;9.294;2023-07-29T02:42:28;8.13;;;4.35;;
18818;SDS011;9537;45.594;9.294;2023-07-29T02:43:29;5.97;;;4.00;;
18818;SDS011;9537;45.594;9.294;2023-07-29T02:44:31;7.07;;;4.70;;
18818;SDS011;9537;45.594;9.294;2023-07-29T02:45:32;7.10;;;4.38;;
18818;SDS011;9537;45.594;9.294;2023-07-29T02:46:34;7.75;;;4.28;;
18818;SDS011;9537;45.594;9.294;2023-07-29T02:47:35;5.07;;;4.40;;
18818;SDS011;9537;45.594;9.294;2023-07-29T02:48:37;5.55;;;4.50;;
18818;SDS011;9537;45.594;9.294;2023-07-29T02:49:38;7.07;;;4.55;;
18818;SDS011;9537;45.594;9.294;2023-07-29T02:50:38;6.07;;;4.50;;
18818;SDS011;9537;45.594;9.294;2023-07-29T02:51:40;6.57;;;4.55;;
18818;SDS011;9537;45.594;9.294;2023-07-29T02:52:41;5.40;;;4.13;;
18818;SDS011;9537;45.594;9.294;2023-07-29T02:53:43;8.43;;;4.50;;
18818;SDS011;9537;45.594;9.294;2023-07-29T02:54:43;7.45;;;4.53;;
18818;SDS011;9537;45.594;9.294;2023-07-29T02:55:46;5.20;;;4.32;;
18818;SDS011;9537;45.594;9.294;2023-07-29T02:56:47;5.43;;;4.35;;
18818;SDS011;9537;45.594;9.294;2023-07-29T02:57:48;6.35;;;4.80;;
18818;SDS011;9537;45.594;9.294;2023-07-29T02:58:50;6.75;;;4.60;;
18818;SDS011;9537;45.594;9.294;2023-07-29T02:59:51;6.10;;;5.07;;
18818;SDS011;9537;45.594;9.294;2023-07-29T03:00:53;5.88;;;4.20;;
18818;SDS011;9537;45.594;9.294;2023-07-29T03:01:54;5.85;;;4.45;;
18818;SDS011;9537;45.594;9.294;2023-07-29T03:02:55;6.82;;;4.30;;
18818;SDS011;9537;45.594;9.294;2023-07-29T03:03:56;6.07;;;4.38;;
18818;SDS011;9537;45.594;9.294;2023-07-29T03:04:58;6.05;;;4.40;;
18818;SDS011;9537;45.594;9.294;2023-07-29T03:05:59;7.78;;;4.82;;
18818;SDS011;9537;45.594;9.294;2023-07-29T03:07:01;7.43;;;4.45;;
18818;SDS011;9537;45.594;9.294;2023-07-29T03:08:02;8.15;;;4.68;;
18818;SDS011;9537;45.594;9.294;2023-07-29T03:09:04;7.15;;;4.85;;
18818;SDS011;9537;45.594;9.294;2023-07-29T03:10:05;6.18;;;4.15;;
18818;SDS011;9537;45.594;9.294;2023-07-29T03:11:09;6.43;;;4.50;;
18818;SDS011;9537;45.594;9.294;2023-07-29T03:12:12;7.53;;;4.40;;
18818;SDS011;9537;45.594;9.294;2023-07-29T03:13:13;7.70;;;4.50;;
18818;SDS011;9537;45.594;9.294;2023-07-29T03:14:14;6.80;;;4.22;;
18818;SDS011;9537;45.594;9.294;2023-07-29T03:15:16;6.35;;;4.05;;
18818;SDS011;9537;45.594;9.294;2023-07-29T03:16:17;4.95;;;4.45;;
18818;SDS011;9537;45.594;9.294;2023-07-29T03:17:19;5.35;;;4.50;;
18818;SDS011;9537;45.594;9.294;2023-07-29T03:18:19;6.70;;;4.30;;
18818;SDS011;9537;45.594;9.294;2023-07-29T03:19:21;7.45;;;4.45;;
18818;SDS011;9537;45.594;9.294;2023-07-29T03:20:22;5.65;;;4.43;;
18818;SDS011;9537;45.594;9.294;2023-07-29T03:21:23;7.72;;;4.22;;
18818;SDS011;9537;45.594;9.294;2023-07-29T03:22:24;5.75;;;4.47;;
18818;SDS011;9537;45.594;9.294;2023-07-29T03:23:27;5.22;;;4.30;;
18818;SDS011;9537;45.594;9.294;2023-07-29T03:24:27;6.95;;;3.97;;
18818;SDS011;9537;45.594;9.294;2023-07-29T03:25:30;6.63;;;4.80;;
18818;SDS011;9537;45.594;9.294;2023-07-29T03:26:32;5.22;;;4.32;;
18818;SDS011;9537;45.594;9.294;2023-07-29T03:27:32;5.05;;;3.80;;
18818;SDS011;9537;45.594;9.294;2023-07-29T03:28:37;6.32;;;4.60;;
18818;SDS011;9537;45.594;9.294;2023-07-29T03:29:38;5.88;;;4.05;;
18818;SDS011;9537;45.594;9.294;2023-07-29T03:30:40;5.50;;;4.45;;
18818;SDS011;9537;45.594;9.294;2023-07-29T03:31:40;6.75;;;4.45;;
18818;SDS011;9537;45.594;9.294;2023-07-29T03:32:43;4.85;;;4.13;;
18818;SDS011;9537;45.594;9.294;2023-07-29T03:33:44;6.75;;;5.00;;
18818;SDS011;9537;45.594;9.294;2023-07-29T03:34:46;6.80;;;4.28;;
18818;SDS011;9537;45.594;9.294;2023-07-29T03:35:47;6.88;;;4.93;;
18818;SDS011;9537;45.594;9.294;2023-07-29T03:36:48;7.30;;;4.68;;
18818;SDS011;9537;45.594;9.294;2023-07-29T03:37:51;8.98;;;4.90;;
18818;SDS011;9537;45.594;9.294;2023-07-29T03:38:52;5.13;;;4.63;;
18818;SDS011;9537;45.594;9.294;2023-07-29T03:39:54;7.65;;;4.20;;
18818;SDS011;9537;45.594;9.294;2023-07-29T03:40:55;6.18;;;4.47;;
18818;SDS011;9537;45.594;9.294;2023-07-29T03:41:57;6.55;;;4.45;;
18818;SDS011;9537;45.594;9.294;2023-07-29T03:42:59;6.95;;;4.35;;
18818;SDS011;9537;45.594;9.294;2023-07-29T03:44:00;7.70;;;4.57;;
18818;SDS011;9537;45.594;9.294;2023-07-29T03:45:01;4.70;;;3.97;;
18818;SDS011;9537;45.594;9.294;2023-07-29T03:46:02;6.70;;;4.18;;
18818;SDS011;9537;45.594;9.294;2023-07-29T03:47:03;8.32;;;4.45;;
18818;SDS011;9537;45.594;9.294;2023-07-29T03:48:06;4.72;;;4.18;;
18818;SDS011;9537;45.594;9.294;2023-07-29T03:49:07;7.82;;;4.60;;
18818;SDS011;9537;45.594;9.294;2023-07-29T03:50:09;6.95;;;4.38;;
18818;SDS011;9537;45.594;9.294;2023-07-29T03:51:10;7.10;;;4.90;;
18818;SDS011;9537;45.594;9.294;2023-07-29T03:52:11;5.97;;;4.65;;
18818;SDS011;9537;45.594;9.294;2023-07-29T03:53:12;8.23;;;4.88;;
18818;SDS011;9537;45.594;9.294;2023-07-29T03:54:14;7.75;;;4.70;;
18818;SDS011;9537;45.594;9.294;2023-07-29T03:55:14;5.15;;;4.30;;
18818;SDS011;9537;45.594;9.294;2023-07-29T03:56:16;6.18;;;4.43;;
18818;SDS011;9537;45.594;9.294;2023-07-29T03:57:18;6.85;;;4.72;;
18818;SDS011;9537;45.594;9.294;2023-07-29T03:58:20;6.47;;;4.72;;
18818;SDS011;9537;45.594;9.294;2023-07-29T03:59:21;6.15;;;4.35;;
18818;SDS011;9537;45.594;9.294;2023-07-29T04:00:23;7.75;;;4.72;;
18818;SDS011;9537;45.594;9.294;2023-07-29T04:01:24;6.32;;;4.40;;
18818;SDS011;9537;45.594;9.294;2023-07-29T04:02:25;5.32;;;4.10;;
18818;SDS011;9537;45.594;9.294;2023-07-29T04:03:26;5.85;;;4.90;;
18818;SDS011;9537;45.594;9.294;2023-07-29T04:04:28;7.35;;;4.85;;
18818;SDS011;9537;45.594;9.294;2023-07-29T04:05:28;7.35;;;4.78;;
18818;SDS011;9537;45.594;9.294;2023-07-29T04:06:30;5.03;;;4.47;;
18818;SDS011;9537;45.594;9.294;2023-07-29T04:07:32;4.63;;;4.18;;
18818;SDS011;9537;45.594;9.294;2023-07-29T04:08:34;6.72;;;4.53;;
18818;SDS011;9537;45.594;9.294;2023-07-29T04:09:34;5.65;;;4.63;;
18818;SDS011;9537;45.594;9.294;2023-07-29T04:10:36;6.70;;;5.00;;
18818;SDS011;9537;45.594;9.294;2023-07-29T04:11:38;6.72;;;4.35;;
18818;SDS011;9537;45.594;9.294;2023-07-29T04:12:41;4.97;;;4.05;;
18818;SDS011;9537;45.594;9.294;2023-07-29T04:13:41;5.22;;;4.57;;
18818;SDS011;9537;45.594;9.294;2023-07-29T04:14:43;6.45;;;4.78;;
18818;SDS011;9537;45.594;9.294;2023-07-29T04:15:44;5.18;;;4.35;;
18818;SDS011;9537;45.594;9.294;2023-07-29T04:16:46;6.00;;;4.72;;
18818;SDS011;9537;45.594;9.294;2023-07-29T04:17:49;7.45;;;4.90;;
18818;SDS011;9537;45.594;9.294;2023-07-29T04:18:51;5.95;;;4.68;;
18818;SDS011;9537;45.594;9.294;2023-07-29T04:19:51;5.75;;;4.45;;
18818;SDS011;9537;45.594;9.294;2023-07-29T04:20:53;5.75;;;4.10;;
18818;SDS011;9537;45.594;9.294;2023-07-29T04:21:54;7.28;;;4.53;;
18818;SDS011;9537;45.594;9.294;2023-07-29T04:22:55;5.10;;;4.13;;
18818;SDS011;9537;45.594;9.294;2023-07-29T04:23:56;8.73;;;4.70;;
18818;SDS011;9537;45.594;9.294;2023-07-29T04:24:58;11.80;;;5.07;;
18818;SDS011;9537;45.594;9.294;2023-07-29T04:25:58;8.13;;;4.82;;
18818;SDS011;9537;45.594;9.294;2023-07-29T04:27:00;6.07;;;4.75;;
18818;SDS011;9537;45.594;9.294;2023-07-29T04:28:02;8.32;;;4.63;;
18818;SDS011;9537;45.594;9.294;2023-07-29T04:29:05;7.50;;;4.57;;
18818;SDS011;9537;45.594;9.294;2023-07-29T04:30:06;8.35;;;4.45;;
18818;SDS011;9537;45.594;9.294;2023-07-29T04:31:07;7.93;;;4.78;;
18818;SDS011;9537;45.594;9.294;2023-07-29T04:32:09;6.90;;;4.65;;
18818;SDS011;9537;45.594;9.294;2023-07-29T04:33:10;6.20;;;4.88;;
18818;SDS011;9537;45.594;9.294;2023-07-29T04:34:11;6.20;;;4.38;;
18818;SDS011;9537;45.594;9.294;2023-07-29T04:35:12;5.88;;;4.53;;
18818;SDS011;9537;45.594;9.294;2023-07-29T04:36:14;6.25;;;4.65;;
18818;SDS011;9537;45.594;9.294;2023-07-29T04:37:15;8.13;;;4.53;;
18818;SDS011;9537;45.594;9.294;2023-07-29T04:38:16;6.25;;;4.35;;
18818;SDS011;9537;45.594;9.294;2023-07-29T04:39:17;6.93;;;4.70;;
18818;SDS011;9537;45.594;9.294;2023-07-29T04:40:19;6.68;;;4.68;;
18818;SDS011;9537;45.594;9.294;2023-07-29T04:41:20;5.95;;;4.45;;
18818;SDS011;9537;45.594;9.294;2023-07-29T04:42:21;6.65;;;4.63;;
18818;SDS011;9537;45.594;9.294;2023-07-29T04:43:23;7.63;;;4.60;;
18818;SDS011;9537;45.594;9.294;2023-07-29T04:44:28;7.47;;;4.45;;
18818;SDS011;9537;45.594;9.294;2023-07-29T04:45:28;5.20;;;4.55;;
18818;SDS011;9537;45.594;9.294;2023-07-29T04:46:31;6.28;;;4.70;;
18818;SDS011;9537;45.594;9.294;2023-07-29T04:47:31;7.72;;;4.57;;
18818;SDS011;9537;45.594;9.294;2023-07-29T04:48:33;8.23;;;4.63;;
18818;SDS011;9537;45.594;9.294;2023-07-29T04:49:34;5.28;;;4.72;;
18818;SDS011;9537;45.594;9.294;2023-07-29T04:50:36;6.38;;;5.00;;
18818;SDS011;9537;45.594;9.294;2023-07-29T04:51:37;5.68;;;4.75;;
18818;SDS011;9537;45.594;9.294;2023-07-29T04:52:39;5.95;;;4.82;;
18818;SDS011;9537;45.594;9.294;2023-07-29T04:53:39;8.02;;;5.10;;
18818;SDS011;9537;45.594;9.294;2023-07-29T04:54:41;6.40;;;4.70;;
18818;SDS011;9537;45.594;9.294;2023-07-29T04:55:42;6.20;;;4.93;;
18818;SDS011;9537;45.594;9.294;2023-07-29T04:56:44;7.13;;;5.07;;
18818;SDS011;9537;45.594;9.294;2023-07-29T04:57:45;7.78;;;4.90;;
18818;SDS011;9537;45.594;9.294;2023-07-29T04:58:48;4.75;;;4.28;;
18818;SDS011;9537;45.594;9.294;2023-07-29T04:59:49;5.22;;;4.60;;
18818;SDS011;9537;45.594;9.294;2023-07-29T05:00:51;5.55;;;4.32;;
18818;SDS011;9537;45.594;9.294;2023-07-29T05:01:51;5.75;;;4.63;;
18818;SDS011;9537;45.594;9.294;2023-07-29T05:02:53;7.70;;;5.03;;
18818;SDS011;9537;45.594;9.294;2023-07-29T05:03:54;5.25;;;4.13;;
18818;SDS011;9537;45.594;9.294;2023-07-29T05:04:55;4.80;;;4.30;;
18818;SDS011;9537;45.594;9.294;2023-07-29T05:05:57;5.25;;;4.68;;
18818;SDS011;9537;45.594;9.294;2023-07-29T05:07:00;6.20;;;4.57;;
18818;SDS011;9537;45.594;9.294;2023-07-29T05:08:01;5.10;;;4.25;;
18818;SDS011;9537;45.594;9.294;2023-07-29T05:09:12;8.15;;;4.57;;
18818;SDS011;9537;45.594;9.294;2023-07-29T05:10:13;6.40;;;4.30;;
18818;SDS011;9537;45.594;9.294;2023-07-29T05:11:15;7.38;;;4.80;;
18818;SDS011;9537;45.594;9.294;2023-07-29T05:12:16;6.45;;;4.63;;
18818;SDS011;9537;45.594;9.294;2023-07-29T05:13:17;7.30;;;5.20;;
18818;SDS011;9537;45.594;9.294;2023-07-29T05:14:20;6.30;;;4.47;;
18818;SDS011;9537;45.594;9.294;2023-07-29T05:15:21;5.45;;;4.82;;
18818;SDS011;9537;45.594;9.294;2023-07-29T05:16:22;7.20;;;4.53;;
18818;SDS011;9537;45.594;9.294;2023-07-29T05:17:23;6.68;;;4.68;;
18818;SDS011;9537;45.594;9.294;2023-07-29T05:18:24;7.03;;;5.05;;
18818;SDS011;9537;45.594;9.294;2023-07-29T05:19:25;6.43;;;4.50;;
18818;SDS011;9537;45.594;9.294;2023-07-29T05:20:27;6.28;;;4.82;;
18818;SDS011;9537;45.594;9.294;2023-07-29T05:21:28;7.68;;;5.18;;
18818;SDS011;9537;45.594;9.294;2023-07-29T05:22:28;8.20;;;4.93;;
18818;SDS011;9537;45.594;9.294;2023-07-29T05:23:30;8.75;;;4.50;;
18818;SDS011;9537;45.594;9.294;2023-07-29T05:24:31;6.53;;;5.05;;
18818;SDS011;9537;45.594;9.294;2023-07-29T05:25:33;7.15;;;4.60;;
18818;SDS011;9537;45.594;9.294;2023-07-29T05:26:34;6.00;;;4.63;;
18818;SDS011;9537;45.594;9.294;2023-07-29T05:27:36;8.65;;;4.97;;
18818;SDS011;9537;45.594;9.294;2023-07-29T05:28:37;6.95;;;4.82;;
18818;SDS011;9537;45.594;9.294;2023-07-29T05:29:40;6.47;;;5.00;;
18818;SDS011;9537;45.594;9.294;2023-07-29T05:30:41;7.55;;;4.78;;
18818;SDS011;9537;45.594;9.294;2023-07-29T05:31:44;7.13;;;5.00;;
18818;SDS011;9537;45.594;9.294;2023-07-29T05:32:45;6.22;;;5.00;;
18818;SDS011;9537;45.594;9.294;2023-07-29T05:33:47;7.47;;;4.53;;
18818;SDS011;9537;45.594;9.294;2023-07-29T05:34:48;6.55;;;4.63;;
18818;SDS011;9537;45.594;9.294;2023-07-29T05:35:49;9.20;;;4.90;;
18818;SDS011;9537;45.594;9.294;2023-07-29T05:36:50;5.97;;;4.72;;
18818;SDS011;9537;45.594;9.294;2023-07-29T05:37:52;8.02;;;4.45;;
18818;SDS011;9537;45.594;9.294;2023-07-29T05:38:52;7.43;;;5.07;;
18818;SDS011;9537;45.594;9.294;2023-07-29T05:39:54;5.03;;;4.53;;
18818;SDS011;9537;45.594;9.294;2023-07-29T05:40:55;6.30;;;4.47;;
18818;SDS011;9537;45.594;9.294;2023-07-29T05:41:57;7.10;;;5.03;;
18818;SDS011;9537;45.594;9.294;2023-07-29T05:42:58;8.05;;;4.43;;
18818;SDS011;9537;45.594;9.294;2023-07-29T05:44:00;6.70;;;4.75;;
18818;SDS011;9537;45.594;9.294;2023-07-29T05:45:03;6.85;;;4.80;;
18818;SDS011;9537;45.594;9.294;2023-07-29T05:46:05;6.57;;;5.00;;
18818;SDS011;9537;45.594;9.294;2023-07-29T05:47:05;6.28;;;5.28;;
18818;SDS011;9537;45.594;9.294;2023-07-29T05:48:07;4.97;;;4.50;;
18818;SDS011;9537;45.594;9.294;2023-07-29T05:49:08;5.72;;;4.65;;
18818;SDS011;9537;45.594;9.294;2023-07-29T05:50:09;6.72;;;4.43;;
18818;SDS011;9537;45.594;9.294;2023-07-29T05:51:10;5.85;;;4.53;;
18818;SDS011;9537;45.594;9.294;2023-07-29T05:52:12;5.57;;;4.65;;
18818;SDS011;9537;45.594;9.294;2023-07-29T05:53:13;7.55;;;5.18;;
18818;SDS011;9537;45.594;9.294;2023-07-29T05:54:15;4.32;;;3.95;;
18818;SDS011;9537;45.594;9.294;2023-07-29T05:55:18;8.57;;;4.55;;
18818;SDS011;9537;45.594;9.294;2023-07-29T05:56:19;9.60;;;5.10;;
18818;SDS011;9537;45.594;9.294;2023-07-29T05:57:21;4.80;;;4.15;;
18818;SDS011;9537;45.594;9.294;2023-07-29T05:58:22;8.32;;;4.90;;
18818;SDS011;9537;45.594;9.294;2023-07-29T05:59:24;6.30;;;4.90;;
18818;SDS011;9537;45.594;9.294;2023-07-29T06:00:26;9.05;;;4.97;;
18818;SDS011;9537;45.594;9.294;2023-07-29T06:01:27;5.15;;;4.63;;
18818;SDS011;9537;45.594;9.294;2023-07-29T06:02:28;6.93;;;4.75;;
18818;SDS011;9537;45.594;9.294;2023-07-29T06:03:30;6.40;;;4.70;;
18818;SDS011;9537;45.594;9.294;2023-07-29T06:04:31;7.15;;;4.43;;
18818;SDS011;9537;45.594;9.294;2023-07-29T06:05:33;5.97;;;4.47;;
18818;SDS011;9537;45.594;9.294;2023-07-29T06:06:33;6.60;;;4.35;;
18818;SDS011;9537;45.594;9.294;2023-07-29T06:07:35;5.93;;;4.25;;
18818;SDS011;9537;45.594;9.294;2023-07-29T06:08:36;5.85;;;4.90;;
18818;SDS011;9537;45.594;9.294;2023-07-29T06:09:38;6.57;;;4.70;;
18818;SDS011;9537;45.594;9.294;2023-07-29T06:10:40;7.78;;;4.60;;
18818;SDS011;9537;45.594;9.294;2023-07-29T06:11:41;4.88;;;4.22;;
18818;SDS011;9537;45.594;9.294;2023-07-29T06:12:42;7.28;;;4.57;;
18818;SDS011;9537;45.594;9.294;2023-07-29T06:13:44;9.70;;;4.63;;
18818;SDS011;9537;45.594;9.294;2023-07-29T06:14:46;6.55;;;4.45;;
18818;SDS011;9537;45.594;9.294;2023-07-29T06:15:49;6.10;;;4.50;;
18818;SDS011;9537;45.594;9.294;2023-07-29T06:16:50;6.82;;;4.28;;
18818;SDS011;9537;45.594;9.294;2023-07-29T06:17:51;8.18;;;4.50;;
18818;SDS011;9537;45.594;9.294;2023-07-29T06:18:52;6.50;;;4.40;;
18818;SDS011;9537;45.594;9.294;2023-07-29T06:19:54;7.82;;;4.72;;